Map

Track Data

SID SEASON NUMBER BASIN SUBBASIN NAME ISO_TIME NATURE LAT LON WMO_WIND WMO_PRES WMO_AGENCY TRACK_TYPE DIST2LAND LANDFALL IFLAG USA_AGENCY USA_ATCF_ID USA_LAT USA_LON USA_RECORD USA_STATUS USA_WIND USA_PRES USA_SSHS USA_R34_NE USA_R34_SE USA_R34_SW USA_R34_NW USA_R50_NE USA_R50_SE USA_R50_SW USA_R50_NW USA_R64_NE USA_R64_SE USA_R64_SW USA_R64_NW USA_POCI USA_ROCI USA_RMW USA_EYE TOKYO_LAT TOKYO_LON TOKYO_GRADE TOKYO_WIND TOKYO_PRES TOKYO_R50_DIR TOKYO_R50_LONG TOKYO_R50_SHORT TOKYO_R30_DIR TOKYO_R30_LONG TOKYO_R30_SHORT TOKYO_LAND CMA_LAT CMA_LON CMA_CAT CMA_WIND CMA_PRES HKO_LAT HKO_LON HKO_CAT HKO_WIND HKO_PRES NEWDELHI_LAT NEWDELHI_LON NEWDELHI_GRADE NEWDELHI_WIND NEWDELHI_PRES NEWDELHI_CI NEWDELHI_DP NEWDELHI_POCI REUNION_LAT REUNION_LON REUNION_TYPE REUNION_WIND REUNION_PRES REUNION_TNUM REUNION_CI REUNION_RMW REUNION_R34_NE REUNION_R34_SE REUNION_R34_SW REUNION_R34_NW REUNION_R50_NE REUNION_R50_SE REUNION_R50_SW REUNION_R50_NW REUNION_R64_NE REUNION_R64_SE REUNION_R64_SW REUNION_R64_NW BOM_LAT BOM_LON BOM_TYPE BOM_WIND BOM_PRES BOM_TNUM BOM_CI BOM_RMW BOM_R34_NE BOM_R34_SE BOM_R34_SW BOM_R34_NW BOM_R50_NE BOM_R50_SE BOM_R50_SW BOM_R50_NW BOM_R64_NE BOM_R64_SE BOM_R64_SW BOM_R64_NW BOM_ROCI BOM_POCI BOM_EYE BOM_POS_METHOD BOM_PRES_METHOD NADI_LAT NADI_LON NADI_CAT NADI_WIND NADI_PRES WELLINGTON_LAT WELLINGTON_LON WELLINGTON_WIND WELLINGTON_PRES DS824_LAT DS824_LON DS824_STAGE DS824_WIND DS824_PRES TD9636_LAT TD9636_LON TD9636_STAGE TD9636_WIND TD9636_PRES TD9635_LAT TD9635_LON TD9635_WIND TD9635_PRES TD9635_ROCI NEUMANN_LAT NEUMANN_LON NEUMANN_CLASS NEUMANN_WIND NEUMANN_PRES MLC_LAT MLC_LON MLC_CLASS MLC_WIND MLC_PRES USA_GUST BOM_GUST BOM_GUST_PER REUNION_GUST REUNION_GUST_PER USA_SEAHGT USA_SEARAD_NE USA_SEARAD_SE USA_SEARAD_SW USA_SEARAD_NW STORM_SPEED STORM_DIR
1895312N13117 1895 48 WP MM NOT_NAMED 1895-11-08 04:00:00 NR 12.9000 117.300 main 297 297 __________O___ -1 12.9000 117.300 3 2 346
1895312N13117 1895 48 WP MM NOT_NAMED 1895-11-08 06:00:00 NR 12.9543 117.298 main 304 304 __________P___ -1 12.9543 117.298 3 2 0
1895312N13117 1895 48 WP MM NOT_NAMED 1895-11-08 09:00:00 NR 13.0342 117.290 main 304 304 __________P___ -1 13.0342 117.290 3 2 349
1895312N13117 1895 48 WP MM NOT_NAMED 1895-11-08 12:00:00 NR 13.1098 117.268 main 312 312 __________P___ -1 13.1098 117.268 3 2 336
1895312N13117 1895 48 WP MM NOT_NAMED 1895-11-08 15:00:00 NR 13.1789 117.222 main 327 327 __________P___ -1 13.1789 117.222 3 2 324
1895312N13117 1895 48 WP MM NOT_NAMED 1895-11-08 16:00:00 NR 13.2000 117.200 main 327 327 __________O___ -1 13.2000 117.200 4 2 308
1895312N13117 1895 48 WP MM NOT_NAMED 1895-11-08 18:00:00 NR 13.2391 117.145 main 335 335 __________P___ -1 13.2391 117.145 4 2 301
1895312N13117 1895 48 WP MM NOT_NAMED 1895-11-08 21:00:00 NR 13.2914 117.044 main 351 351 __________P___ -1 13.2914 117.044 4 2 296
1895312N13117 1895 48 WP MM NOT_NAMED 1895-11-09 00:00:00 NR 13.3388 116.934 main 359 359 __________P___ -1 13.3388 116.934 4 2 294
1895312N13117 1895 48 WP MM NOT_NAMED 1895-11-09 03:00:00 NR 13.3846 116.830 main 374 374 __________P___ -1 13.3846 116.830 4 2 295
1895312N13117 1895 48 WP MM NOT_NAMED 1895-11-09 04:00:00 NR 13.4000 116.800 main 374 374 __________O___ -1 13.4000 116.800 4 2 305
1895312N13117 1895 48 WP MM NOT_NAMED 1895-11-09 06:00:00 NR 13.4359 116.755 main 374 374 __________P___ -1 13.4359 116.755 4 2 313
1895312N13117 1895 48 WP MM NOT_NAMED 1895-11-09 09:00:00 NR 13.4899 116.701 main 389 389 __________P___ -1 13.4899 116.701 4 1 318
1895312N13117 1895 48 WP MM NOT_NAMED 1895-11-09 12:00:00 NR 13.5412 116.656 main 389 389 __________P___ -1 13.5412 116.656 4 1 318
1895312N13117 1895 48 WP MM NOT_NAMED 1895-11-09 15:00:00 NR 13.5867 116.614 main 400 400 __________P___ -1 13.5867 116.614 4 1 318
1895312N13117 1895 48 WP MM NOT_NAMED 1895-11-09 16:00:00 NR 13.6000 116.600 main 400 400 __________O___ -1 13.6000 116.600 4 1 296
1895312N13117 1895 48 WP MM NOT_NAMED 1895-11-09 18:00:00 NR 13.6171 116.564 main 400 400 __________P___ -1 13.6171 116.564 4 1 292
1895312N13117 1895 48 WP MM NOT_NAMED 1895-11-09 21:00:00 NR 13.6364 116.510 main 410 407 __________P___ -1 13.6364 116.510 4 1 290
1895312N13117 1895 48 WP MM NOT_NAMED 1895-11-10 00:00:00 NR 13.6563 116.459 main 407 407 __________P___ -1 13.6563 116.459 4 1 296
1895312N13117 1895 48 WP MM NOT_NAMED 1895-11-10 03:00:00 NR 13.6862 116.413 main 417 417 __________P___ -1 13.6862 116.413 4 1 310
1895312N13117 1895 48 WP MM NOT_NAMED 1895-11-10 04:00:00 NR 13.7000 116.400 main 417 417 __________O___ -1 13.7000 116.400 4 1 339
1895312N13117 1895 48 WP MM NOT_NAMED 1895-11-10 06:00:00 NR 13.7386 116.385 main 417 414 __________P___ -1 13.7386 116.385 4 1 337
1895312N13117 1895 48 WP MM NOT_NAMED 1895-11-10 09:00:00 NR 13.8090 116.370 main 414 411 __________P___ -1 13.8090 116.370 4 2 349
1895312N13117 1895 48 WP MM NOT_NAMED 1895-11-10 12:00:00 NR 13.8891 116.352 main 411 411 __________P___ -1 13.8891 116.352 4 2 341
1895312N13117 1895 48 WP MM NOT_NAMED 1895-11-10 15:00:00 NR 13.9725 116.317 main 417 417 __________P___ -1 13.9725 116.317 4 2 332
1895312N13117 1895 48 WP MM NOT_NAMED 1895-11-10 16:00:00 NR 14.0000 116.300 main 417 413 __________O___ -1 14.0000 116.300 4 2 322
1895312N13117 1895 48 WP MM NOT_NAMED 1895-11-10 18:00:00 NR 14.0553 116.245 main 423 423 __________P___ -1 14.0553 116.245 4 2 312
1895312N13117 1895 48 WP MM NOT_NAMED 1895-11-10 21:00:00 NR 14.1383 116.144 main 433 430 __________P___ -1 14.1383 116.144 4 3 308
1895312N13117 1895 48 WP MM NOT_NAMED 1895-11-11 00:00:00 NR 14.2159 116.034 main 440 437 __________P___ -1 14.2159 116.034 4 3 305
1895312N13117 1895 48 WP MM NOT_NAMED 1895-11-11 03:00:00 NR 14.2817 115.930 main 447 447 __________P___ -1 14.2817 115.930 4 2 302
1895312N13117 1895 48 WP MM NOT_NAMED 1895-11-11 04:00:00 NR 14.3000 115.900 main 447 447 __________O___ -1 14.3000 115.900 4 2 304
1895312N13117 1895 48 WP MM NOT_NAMED 1895-11-11 06:00:00 NR 14.3254 115.855 main 447 447 __________P___ -1 14.3254 115.855 4 1 297
1895312N13117 1895 48 WP MM NOT_NAMED 1895-11-11 09:00:00 NR 14.3510 115.801 main 454 454 __________P___ -1 14.3510 115.801 4 1 295
1895312N13117 1895 48 WP MM NOT_NAMED 1895-11-11 12:00:00 NR 14.3696 115.756 main 454 454 __________P___ -1 14.3696 115.756 4 1 297
1895312N13117 1895 48 WP MM NOT_NAMED 1895-11-11 15:00:00 NR 14.3908 115.714 main 465 465 __________P___ -1 14.3908 115.714 4 1 296
1895312N13117 1895 48 WP MM NOT_NAMED 1895-11-11 16:00:00 NR 14.4000 115.700 main 465 465 __________O___ -1 14.4000 115.700 4 1 311
1895312N13117 1895 48 WP MM NOT_NAMED 1895-11-11 18:00:00 NR 14.4276 115.669 main 465 465 __________P___ -1 14.4276 115.669 4 1 312
1895312N13117 1895 48 WP MM NOT_NAMED 1895-11-11 21:00:00 NR 14.4754 115.623 main 470 470 __________P___ -1 14.4754 115.623 4 1 320
1895312N13117 1895 48 WP MM NOT_NAMED 1895-11-12 00:00:00 NR 14.5279 115.575 main 470 466 __________P___ -1 14.5279 115.575 4 1 318
1895312N13117 1895 48 WP MM NOT_NAMED 1895-11-12 03:00:00 NR 14.5821 115.520 main 477 477 __________P___ -1 14.5821 115.520 4 2 318
1895312N13117 1895 48 WP MM NOT_NAMED 1895-11-12 04:00:00 NR 14.6000 115.500 main 477 477 __________O___ -1 14.6000 115.500 4 1 308
1895312N13117 1895 48 WP MM NOT_NAMED 1895-11-12 06:00:00 NR 14.6307 115.466 main 477 477 __________P___ -1 14.6307 115.466 4 1 310
1895312N13117 1895 48 WP MM NOT_NAMED 1895-11-12 09:00:00 NR 14.6766 115.409 main 483 483 __________P___ -1 14.6766 115.409 4 2 307
1895312N13117 1895 48 WP MM NOT_NAMED 1895-11-12 12:00:00 NR 14.7253 115.337 main 493 490 __________P___ -1 14.7253 115.337 4 2 302
1895312N13117 1895 48 WP MM NOT_NAMED 1895-11-12 15:00:00 NR 14.7800 115.240 main 500 500 __________P___ -1 14.7800 115.240 4 2 299
1895312N13117 1895 48 WP MM NOT_NAMED 1895-11-12 16:00:00 NR 14.8000 115.200 main 500 500 __________O___ -1 14.8000 115.200 4 3 298
1895312N13117 1895 48 WP MM NOT_NAMED 1895-11-12 18:00:00 NR 14.8443 115.117 main 511 508 __________P___ -1 14.8443 115.117 4 3 297
1895312N13117 1895 48 WP MM NOT_NAMED 1895-11-12 21:00:00 NR 14.9169 114.967 main 518 518 __________P___ -1 14.9169 114.967 4 4 295
1895312N13117 1895 48 WP MM NOT_NAMED 1895-11-13 00:00:00 NR 14.9945 114.787 main 537 537 __________P___ -1 14.9945 114.787 4 4 293
1895312N13117 1895 48 WP MM NOT_NAMED 1895-11-13 03:00:00 NR 15.0737 114.577 main 555 555 __________P___ -1 15.0737 114.577 4 4 291
1895312N13117 1895 48 WP MM NOT_NAMED 1895-11-13 04:00:00 NR 15.1000 114.500 main 566 557 __________O___ -1 15.1000 114.500 4 5 288
1895312N13117 1895 48 WP MM NOT_NAMED 1895-11-13 06:00:00 NR 15.1500 114.340 main 557 536 __________P___ -1 15.1500 114.340 4 5 287
1895312N13117 1895 48 WP MM NOT_NAMED 1895-11-13 09:00:00 NR 15.2251 114.074 main 536 509 __________P___ -1 15.2251 114.074 4 6 286
1895312N13117 1895 48 WP MM NOT_NAMED 1895-11-13 12:00:00 NR 15.3000 113.788 main 509 479 __________P___ -1 15.3000 113.788 4 6 285
1895312N13117 1895 48 WP MM NOT_NAMED 1895-11-13 15:00:00 NR 15.3750 113.497 main 479 468 __________P___ -1 15.3750 113.497 4 6 285
1895312N13117 1895 48 WP MM NOT_NAMED 1895-11-13 16:00:00 NR 15.4000 113.400 main 468 449 __________O___ -1 15.4000 113.400 4 6 287
1895312N13117 1895 48 WP MM NOT_NAMED 1895-11-13 18:00:00 NR 15.4551 113.222 main 449 428 __________P___ -1 15.4551 113.222 4 5 288
1895312N13117 1895 48 WP MM NOT_NAMED 1895-11-13 21:00:00 NR 15.5380 112.955 main 428 399 __________P___ -1 15.5380 112.955 4 5 287
1895312N13117 1895 48 WP MM NOT_NAMED 1895-11-14 00:00:00 NR 15.6156 112.682 main 399 371 __________P___ -1 15.6156 112.682 4 6 285
1895312N13117 1895 48 WP MM NOT_NAMED 1895-11-14 03:00:00 NR 15.6816 112.398 main 371 361 __________P___ -1 15.6816 112.398 4 6 283
1895312N13117 1895 48 WP MM NOT_NAMED 1895-11-14 04:00:00 NR 15.7000 112.300 main 361 340 __________O___ -1 15.7000 112.300 4 6 278
1895312N13117 1895 48 WP MM NOT_NAMED 1895-11-14 06:00:00 NR 15.7201 112.100 main 340 310 __________P___ -1 15.7201 112.100 4 6 274
1895312N13117 1895 48 WP MM NOT_NAMED 1895-11-14 09:00:00 NR 15.7376 111.787 main 310 280 __________P___ -1 15.7376 111.787 4 6 273
1895312N13117 1895 48 WP MM NOT_NAMED 1895-11-14 12:00:00 NR 15.7536 111.460 main 285 245 __________P___ -1 15.7536 111.460 4 6 274
1895312N13117 1895 48 WP MM NOT_NAMED 1895-11-14 15:00:00 NR 15.7840 111.117 main 245 234 __________P___ -1 15.7840 111.117 4 7 276
1895312N13117 1895 48 WP MM NOT_NAMED 1895-11-14 16:00:00 NR 15.8000 111.000 main 234 214 __________O___ -1 15.8000 111.000 4 7 280
1895312N13117 1895 48 WP MM NOT_NAMED 1895-11-14 18:00:00 NR 15.8431 110.760 main 214 178 __________P___ -1 15.8431 110.760 4 7 283
1895312N13117 1895 48 WP MM NOT_NAMED 1895-11-14 21:00:00 NR 15.9313 110.391 main 178 148 __________P___ -1 15.9313 110.391 4 7 285
1895312N13117 1895 48 WP MM NOT_NAMED 1895-11-15 00:00:00 NR 16.0396 110.012 main 148 131 __________P___ -1 16.0396 110.012 4 8 287
1895312N13117 1895 48 WP MM NOT_NAMED 1895-11-15 03:00:00 NR 16.1592 109.629 main 131 123 __________P___ -1 16.1592 109.629 4 8 288
1895312N13117 1895 48 WP MM NOT_NAMED 1895-11-15 04:00:00 NR 16.2000 109.500 main 123 __________O___ -1 16.2000 109.500 4 8 288

Digital Typhoon Data and Search

About IBTrACS Database

This database is a web-friendly format of International Best Track Archive for Climate Stewardship (IBTrACS), a global best track data archive curated by NOAA dating back to 1842.

Updated: 2021-11-26